sensor_id;sensor_type;location;lat;lon;timestamp;P1;durP1;ratioP1;P2;durP2;ratioP2
19038;SDS011;9652;49.014;12.052;2022-10-13T00:00:57;15.97;;;10.60;;
19038;SDS011;9652;49.014;12.052;2022-10-13T00:03:24;16.27;;;10.23;;
19038;SDS011;9652;49.014;12.052;2022-10-13T00:05:51;13.23;;;9.90;;
19038;SDS011;9652;49.014;12.052;2022-10-13T00:08:19;18.00;;;9.97;;
19038;SDS011;9652;49.014;12.052;2022-10-13T00:10:50;16.40;;;10.17;;
19038;SDS011;9652;49.014;12.052;2022-10-13T00:13:22;14.93;;;10.50;;
19038;SDS011;9652;49.014;12.052;2022-10-13T00:15:50;15.53;;;10.43;;
19038;SDS011;9652;49.014;12.052;2022-10-13T00:18:19;16.30;;;10.13;;
19038;SDS011;9652;49.014;12.052;2022-10-13T00:20:49;16.17;;;10.40;;
19038;SDS011;9652;49.014;12.052;2022-10-13T00:23:16;15.90;;;9.47;;
19038;SDS011;9652;49.014;12.052;2022-10-13T00:25:44;17.00;;;9.90;;
19038;SDS011;9652;49.014;12.052;2022-10-13T00:28:15;15.60;;;10.03;;
19038;SDS011;9652;49.014;12.052;2022-10-13T00:30:44;11.67;;;9.23;;
19038;SDS011;9652;49.014;12.052;2022-10-13T00:33:14;12.43;;;8.63;;
19038;SDS011;9652;49.014;12.052;2022-10-13T00:35:41;16.70;;;9.63;;
19038;SDS011;9652;49.014;12.052;2022-10-13T00:38:13;14.63;;;9.53;;
19038;SDS011;9652;49.014;12.052;2022-10-13T00:40:44;13.20;;;9.63;;
19038;SDS011;9652;49.014;12.052;2022-10-13T00:43:15;15.63;;;10.30;;
19038;SDS011;9652;49.014;12.052;2022-10-13T00:45:43;13.07;;;8.57;;
19038;SDS011;9652;49.014;12.052;2022-10-13T00:48:10;12.23;;;9.27;;
19038;SDS011;9652;49.014;12.052;2022-10-13T00:50:40;17.50;;;10.00;;
19038;SDS011;9652;49.014;12.052;2022-10-13T00:53:08;13.87;;;9.20;;
19038;SDS011;9652;49.014;12.052;2022-10-13T00:55:37;17.97;;;9.90;;
19038;SDS011;9652;49.014;12.052;2022-10-13T00:58:09;16.33;;;10.50;;
19038;SDS011;9652;49.014;12.052;2022-10-13T01:00:42;13.00;;;10.27;;
19038;SDS011;9652;49.014;12.052;2022-10-13T01:03:14;14.33;;;9.50;;
19038;SDS011;9652;49.014;12.052;2022-10-13T01:05:41;14.30;;;9.83;;
19038;SDS011;9652;49.014;12.052;2022-10-13T01:08:09;15.10;;;9.53;;
19038;SDS011;9652;49.014;12.052;2022-10-13T01:10:41;14.27;;;9.30;;
19038;SDS011;9652;49.014;12.052;2022-10-13T01:13:22;14.90;;;9.40;;
19038;SDS011;9652;49.014;12.052;2022-10-13T01:16:04;14.57;;;10.03;;
19038;SDS011;9652;49.014;12.052;2022-10-13T01:18:45;12.90;;;8.60;;
19038;SDS011;9652;49.014;12.052;2022-10-13T01:21:23;13.63;;;9.00;;
19038;SDS011;9652;49.014;12.052;2022-10-13T01:24:05;13.10;;;8.47;;
19038;SDS011;9652;49.014;12.052;2022-10-13T01:27:04;14.73;;;8.97;;
19038;SDS011;9652;49.014;12.052;2022-10-13T01:35:52;13.77;;;8.37;;
19038;SDS011;9652;49.014;12.052;2022-10-13T01:38:35;15.50;;;9.70;;
19038;SDS011;9652;49.014;12.052;2022-10-13T01:41:11;16.83;;;10.40;;
19038;SDS011;9652;49.014;12.052;2022-10-13T01:43:46;15.93;;;10.20;;
19038;SDS011;9652;49.014;12.052;2022-10-13T01:46:23;15.50;;;9.70;;
19038;SDS011;9652;49.014;12.052;2022-10-13T01:48:55;13.70;;;9.20;;
19038;SDS011;9652;49.014;12.052;2022-10-13T01:51:28;17.93;;;9.80;;
19038;SDS011;9652;49.014;12.052;2022-10-13T01:53:57;14.83;;;9.47;;
19038;SDS011;9652;49.014;12.052;2022-10-13T01:56:24;17.57;;;10.37;;
19038;SDS011;9652;49.014;12.052;2022-10-13T01:58:51;15.60;;;9.97;;
19038;SDS011;9652;49.014;12.052;2022-10-13T02:01:33;16.03;;;10.30;;
19038;SDS011;9652;49.014;12.052;2022-10-13T02:04:22;13.67;;;9.37;;
19038;SDS011;9652;49.014;12.052;2022-10-13T02:07:06;20.57;;;10.03;;
19038;SDS011;9652;49.014;12.052;2022-10-13T02:09:46;14.57;;;9.53;;
19038;SDS011;9652;49.014;12.052;2022-10-13T02:12:24;21.70;;;9.80;;
19038;SDS011;9652;49.014;12.052;2022-10-13T02:14:56;18.53;;;10.20;;
19038;SDS011;9652;49.014;12.052;2022-10-13T02:17:27;18.37;;;10.63;;
19038;SDS011;9652;49.014;12.052;2022-10-13T02:19:57;21.73;;;10.93;;
19038;SDS011;9652;49.014;12.052;2022-10-13T02:22:25;23.93;;;11.73;;
19038;SDS011;9652;49.014;12.052;2022-10-13T02:25:00;25.43;;;12.17;;
19038;SDS011;9652;49.014;12.052;2022-10-13T02:27:28;23.37;;;11.53;;
19038;SDS011;9652;49.014;12.052;2022-10-13T02:29:56;19.23;;;12.00;;
19038;SDS011;9652;49.014;12.052;2022-10-13T02:32:29;24.77;;;11.93;;
19038;SDS011;9652;49.014;12.052;2022-10-13T02:34:56;19.57;;;11.40;;
19038;SDS011;9652;49.014;12.052;2022-10-13T02:37:23;18.43;;;10.33;;
19038;SDS011;9652;49.014;12.052;2022-10-13T02:39:51;20.27;;;10.97;;
19038;SDS011;9652;49.014;12.052;2022-10-13T02:42:18;30.63;;;12.87;;
19038;SDS011;9652;49.014;12.052;2022-10-13T02:44:45;26.47;;;11.30;;
19038;SDS011;9652;49.014;12.052;2022-10-13T02:47:12;24.20;;;11.67;;
19038;SDS011;9652;49.014;12.052;2022-10-13T02:49:41;22.83;;;12.20;;
19038;SDS011;9652;49.014;12.052;2022-10-13T02:52:08;27.00;;;12.43;;
19038;SDS011;9652;49.014;12.052;2022-10-13T02:54:40;23.13;;;12.07;;
19038;SDS011;9652;49.014;12.052;2022-10-13T02:57:07;23.20;;;12.20;;
19038;SDS011;9652;49.014;12.052;2022-10-13T02:59:34;22.50;;;11.50;;
19038;SDS011;9652;49.014;12.052;2022-10-13T03:02:01;23.93;;;11.53;;
19038;SDS011;9652;49.014;12.052;2022-10-13T03:04:30;21.60;;;13.13;;
19038;SDS011;9652;49.014;12.052;2022-10-13T03:06:59;28.97;;;12.63;;
19038;SDS011;9652;49.014;12.052;2022-10-13T03:09:26;24.47;;;11.00;;
19038;SDS011;9652;49.014;12.052;2022-10-13T03:11:53;22.23;;;11.23;;
19038;SDS011;9652;49.014;12.052;2022-10-13T03:14:21;24.33;;;12.40;;
19038;SDS011;9652;49.014;12.052;2022-10-13T03:16:48;21.20;;;12.20;;
19038;SDS011;9652;49.014;12.052;2022-10-13T03:19:18;24.30;;;11.87;;
19038;SDS011;9652;49.014;12.052;2022-10-13T03:21:45;19.80;;;11.73;;
19038;SDS011;9652;49.014;12.052;2022-10-13T03:24:14;23.53;;;12.73;;
19038;SDS011;9652;49.014;12.052;2022-10-13T03:26:41;21.30;;;12.30;;
19038;SDS011;9652;49.014;12.052;2022-10-13T03:29:10;21.53;;;11.73;;
19038;SDS011;9652;49.014;12.052;2022-10-13T03:31:39;23.53;;;12.60;;
19038;SDS011;9652;49.014;12.052;2022-10-13T03:34:06;20.97;;;12.07;;
19038;SDS011;9652;49.014;12.052;2022-10-13T03:36:34;22.70;;;12.53;;
19038;SDS011;9652;49.014;12.052;2022-10-13T03:39:01;24.73;;;12.90;;
19038;SDS011;9652;49.014;12.052;2022-10-13T03:41:30;21.10;;;11.90;;
19038;SDS011;9652;49.014;12.052;2022-10-13T03:43:57;24.00;;;12.53;;
19038;SDS011;9652;49.014;12.052;2022-10-13T03:46:25;22.63;;;12.37;;
19038;SDS011;9652;49.014;12.052;2022-10-13T03:48:56;20.37;;;12.37;;
19038;SDS011;9652;49.014;12.052;2022-10-13T03:51:24;20.93;;;11.63;;
19038;SDS011;9652;49.014;12.052;2022-10-13T03:53:51;24.03;;;13.90;;
19038;SDS011;9652;49.014;12.052;2022-10-13T03:56:20;24.47;;;13.07;;
19038;SDS011;9652;49.014;12.052;2022-10-13T03:58:51;25.70;;;13.47;;
19038;SDS011;9652;49.014;12.052;2022-10-13T04:01:21;23.83;;;11.57;;
19038;SDS011;9652;49.014;12.052;2022-10-13T04:03:51;26.07;;;12.83;;
19038;SDS011;9652;49.014;12.052;2022-10-13T04:06:19;23.43;;;12.20;;
19038;SDS011;9652;49.014;12.052;2022-10-13T04:08:48;25.37;;;12.07;;
19038;SDS011;9652;49.014;12.052;2022-10-13T04:11:15;22.13;;;13.13;;
19038;SDS011;9652;49.014;12.052;2022-10-13T04:13:50;23.43;;;13.57;;
19038;SDS011;9652;49.014;12.052;2022-10-13T04:16:19;24.20;;;13.30;;
19038;SDS011;9652;49.014;12.052;2022-10-13T04:18:49;23.00;;;12.60;;
19038;SDS011;9652;49.014;12.052;2022-10-13T04:21:18;21.90;;;13.27;;
19038;SDS011;9652;49.014;12.052;2022-10-13T04:23:46;22.30;;;12.60;;
19038;SDS011;9652;49.014;12.052;2022-10-13T04:26:14;24.53;;;12.70;;
19038;SDS011;9652;49.014;12.052;2022-10-13T04:28:43;23.13;;;12.77;;
19038;SDS011;9652;49.014;12.052;2022-10-13T04:31:13;23.37;;;13.23;;
19038;SDS011;9652;49.014;12.052;2022-10-13T04:33:41;21.23;;;12.50;;
19038;SDS011;9652;49.014;12.052;2022-10-13T04:36:09;28.37;;;14.00;;
19038;SDS011;9652;49.014;12.052;2022-10-13T04:38:39;23.63;;;14.27;;
19038;SDS011;9652;49.014;12.052;2022-10-13T04:41:07;28.03;;;13.53;;
19038;SDS011;9652;49.014;12.052;2022-10-13T04:43:39;22.07;;;13.57;;
19038;SDS011;9652;49.014;12.052;2022-10-13T04:46:07;27.60;;;13.63;;
19038;SDS011;9652;49.014;12.052;2022-10-13T04:48:39;27.90;;;13.20;;
19038;SDS011;9652;49.014;12.052;2022-10-13T04:51:07;25.73;;;13.10;;
19038;SDS011;9652;49.014;12.052;2022-10-13T04:53:37;21.90;;;13.27;;
19038;SDS011;9652;49.014;12.052;2022-10-13T04:56:08;24.30;;;13.63;;
19038;SDS011;9652;49.014;12.052;2022-10-13T04:58:39;26.20;;;14.03;;
19038;SDS011;9652;49.014;12.052;2022-10-13T05:01:11;25.20;;;12.93;;
19038;SDS011;9652;49.014;12.052;2022-10-13T05:03:41;21.77;;;13.53;;
19038;SDS011;9652;49.014;12.052;2022-10-13T05:06:12;21.87;;;11.87;;
19038;SDS011;9652;49.014;12.052;2022-10-13T05:08:45;20.80;;;12.37;;
19038;SDS011;9652;49.014;12.052;2022-10-13T05:11:14;19.73;;;11.57;;
19038;SDS011;9652;49.014;12.052;2022-10-13T05:13:44;21.70;;;12.27;;
19038;SDS011;9652;49.014;12.052;2022-10-13T05:16:12;22.77;;;13.30;;
19038;SDS011;9652;49.014;12.052;2022-10-13T05:18:45;23.07;;;12.90;;
19038;SDS011;9652;49.014;12.052;2022-10-13T05:21:13;19.40;;;12.80;;
19038;SDS011;9652;49.014;12.052;2022-10-13T05:23:43;21.43;;;11.53;;
19038;SDS011;9652;49.014;12.052;2022-10-13T05:26:12;22.47;;;13.03;;
19038;SDS011;9652;49.014;12.052;2022-10-13T05:28:41;15.20;;;11.23;;
19038;SDS011;9652;49.014;12.052;2022-10-13T05:31:09;18.27;;;11.70;;
19038;SDS011;9652;49.014;12.052;2022-10-13T05:33:38;16.37;;;11.40;;
19038;SDS011;9652;49.014;12.052;2022-10-13T05:36:08;17.50;;;12.13;;
19038;SDS011;9652;49.014;12.052;2022-10-13T05:38:41;17.37;;;11.70;;
19038;SDS011;9652;49.014;12.052;2022-10-13T05:41:09;16.03;;;11.10;;
19038;SDS011;9652;49.014;12.052;2022-10-13T05:43:39;17.37;;;11.60;;
19038;SDS011;9652;49.014;12.052;2022-10-13T05:46:07;18.70;;;11.20;;
19038;SDS011;9652;49.014;12.052;2022-10-13T05:48:37;17.30;;;11.33;;
19038;SDS011;9652;49.014;12.052;2022-10-13T05:51:05;18.27;;;12.73;;
19038;SDS011;9652;49.014;12.052;2022-10-13T05:53:38;20.83;;;12.83;;
19038;SDS011;9652;49.014;12.052;2022-10-13T05:56:11;16.63;;;12.43;;
19038;SDS011;9652;49.014;12.052;2022-10-13T05:58:45;17.53;;;11.73;;
19038;SDS011;9652;49.014;12.052;2022-10-13T06:01:19;18.00;;;12.70;;
19038;SDS011;9652;49.014;12.052;2022-10-13T06:03:50;18.60;;;11.73;;
19038;SDS011;9652;49.014;12.052;2022-10-13T06:06:23;18.57;;;11.53;;
19038;SDS011;9652;49.014;12.052;2022-10-13T06:08:50;17.07;;;12.13;;
19038;SDS011;9652;49.014;12.052;2022-10-13T06:11:18;20.47;;;14.00;;
19038;SDS011;9652;49.014;12.052;2022-10-13T06:13:45;16.40;;;12.07;;
19038;SDS011;9652;49.014;12.052;2022-10-13T06:16:13;16.37;;;12.37;;
19038;SDS011;9652;49.014;12.052;2022-10-13T06:18:40;16.70;;;12.33;;
19038;SDS011;9652;49.014;12.052;2022-10-13T06:21:07;19.33;;;12.60;;
19038;SDS011;9652;49.014;12.052;2022-10-13T06:23:35;22.47;;;13.23;;
19038;SDS011;9652;49.014;12.052;2022-10-13T06:26:03;18.90;;;13.50;;
19038;SDS011;9652;49.014;12.052;2022-10-13T06:28:34;20.20;;;13.30;;
19038;SDS011;9652;49.014;12.052;2022-10-13T06:31:02;14.10;;;11.40;;
19038;SDS011;9652;49.014;12.052;2022-10-13T06:33:31;17.80;;;12.30;;
19038;SDS011;9652;49.014;12.052;2022-10-13T06:35:59;15.43;;;11.40;;
19038;SDS011;9652;49.014;12.052;2022-10-13T06:38:27;16.60;;;11.23;;
19038;SDS011;9652;49.014;12.052;2022-10-13T06:40:59;21.37;;;12.53;;
19038;SDS011;9652;49.014;12.052;2022-10-13T06:43:29;18.57;;;12.13;;
19038;SDS011;9652;49.014;12.052;2022-10-13T06:46:00;20.63;;;12.93;;
19038;SDS011;9652;49.014;12.052;2022-10-13T06:48:28;17.63;;;11.73;;
19038;SDS011;9652;49.014;12.052;2022-10-13T06:50:59;18.90;;;12.97;;
19038;SDS011;9652;49.014;12.052;2022-10-13T06:53:27;15.77;;;11.50;;
19038;SDS011;9652;49.014;12.052;2022-10-13T06:55:55;17.87;;;12.40;;
19038;SDS011;9652;49.014;12.052;2022-10-13T06:58:24;17.93;;;12.07;;
19038;SDS011;9652;49.014;12.052;2022-10-13T07:00:51;19.57;;;13.30;;
19038;SDS011;9652;49.014;12.052;2022-10-13T07:03:19;17.97;;;12.03;;
19038;SDS011;9652;49.014;12.052;2022-10-13T07:05:46;17.30;;;11.77;;
19038;SDS011;9652;49.014;12.052;2022-10-13T07:08:13;16.67;;;12.70;;
19038;SDS011;9652;49.014;12.052;2022-10-13T07:10:41;17.67;;;12.00;;
19038;SDS011;9652;49.014;12.052;2022-10-13T07:13:09;15.93;;;11.70;;
19038;SDS011;9652;49.014;12.052;2022-10-13T07:15:37;18.50;;;12.07;;
19038;SDS011;9652;49.014;12.052;2022-10-13T07:18:06;19.93;;;12.70;;
19038;SDS011;9652;49.014;12.052;2022-10-13T07:20:33;16.80;;;12.47;;
19038;SDS011;9652;49.014;12.052;2022-10-13T07:23:01;16.80;;;12.53;;
19038;SDS011;9652;49.014;12.052;2022-10-13T07:25:28;19.03;;;13.20;;
19038;SDS011;9652;49.014;12.052;2022-10-13T07:27:56;18.33;;;12.57;;
19038;SDS011;9652;49.014;12.052;2022-10-13T07:30:24;22.03;;;12.73;;
19038;SDS011;9652;49.014;12.052;2022-10-13T07:32:52;17.20;;;11.70;;
19038;SDS011;9652;49.014;12.052;2022-10-13T07:35:19;15.83;;;11.80;;
19038;SDS011;9652;49.014;12.052;2022-10-13T07:37:50;16.97;;;12.67;;
19038;SDS011;9652;49.014;12.052;2022-10-13T07:40:18;17.60;;;11.50;;
19038;SDS011;9652;49.014;12.052;2022-10-13T07:42:45;17.03;;;11.63;;
19038;SDS011;9652;49.014;12.052;2022-10-13T07:45:12;19.13;;;12.17;;
19038;SDS011;9652;49.014;12.052;2022-10-13T07:47:40;16.47;;;11.47;;
19038;SDS011;9652;49.014;12.052;2022-10-13T07:50:09;16.03;;;12.10;;
19038;SDS011;9652;49.014;12.052;2022-10-13T07:52:36;16.50;;;11.87;;
19038;SDS011;9652;49.014;12.052;2022-10-13T07:55:03;18.07;;;11.53;;
19038;SDS011;9652;49.014;12.052;2022-10-13T07:57:32;18.80;;;12.47;;
19038;SDS011;9652;49.014;12.052;2022-10-13T07:59:59;17.63;;;12.17;;
19038;SDS011;9652;49.014;12.052;2022-10-13T08:02:26;18.17;;;12.57;;
19038;SDS011;9652;49.014;12.052;2022-10-13T08:04:54;15.93;;;11.87;;
19038;SDS011;9652;49.014;12.052;2022-10-13T08:07:22;17.23;;;12.07;;
19038;SDS011;9652;49.014;12.052;2022-10-13T08:09:49;16.37;;;12.57;;
19038;SDS011;9652;49.014;12.052;2022-10-13T08:12:16;18.50;;;11.07;;
19038;SDS011;9652;49.014;12.052;2022-10-13T08:14:44;19.87;;;12.80;;
19038;SDS011;9652;49.014;12.052;2022-10-13T08:17:11;16.90;;;11.33;;
19038;SDS011;9652;49.014;12.052;2022-10-13T08:19:38;18.70;;;11.90;;
19038;SDS011;9652;49.014;12.052;2022-10-13T08:22:05;19.67;;;12.33;;
19038;SDS011;9652;49.014;12.052;2022-10-13T08:24:37;18.90;;;12.53;;
19038;SDS011;9652;49.014;12.052;2022-10-13T08:27:05;15.90;;;11.80;;
19038;SDS011;9652;49.014;12.052;2022-10-13T08:29:37;14.83;;;10.90;;
19038;SDS011;9652;49.014;12.052;2022-10-13T08:32:04;15.43;;;11.67;;
19038;SDS011;9652;49.014;12.052;2022-10-13T08:34:31;15.47;;;11.70;;
19038;SDS011;9652;49.014;12.052;2022-10-13T08:37:00;14.93;;;11.03;;
19038;SDS011;9652;49.014;12.052;2022-10-13T08:39:28;15.70;;;11.47;;
19038;SDS011;9652;49.014;12.052;2022-10-13T08:41:57;16.90;;;11.63;;
19038;SDS011;9652;49.014;12.052;2022-10-13T08:44:27;15.80;;;12.03;;
19038;SDS011;9652;49.014;12.052;2022-10-13T08:47:04;16.50;;;11.27;;
19038;SDS011;9652;49.014;12.052;2022-10-13T08:49:39;17.77;;;11.93;;
19038;SDS011;9652;49.014;12.052;2022-10-13T08:52:08;16.57;;;11.33;;
19038;SDS011;9652;49.014;12.052;2022-10-13T08:54:43;16.93;;;11.77;;
19038;SDS011;9652;49.014;12.052;2022-10-13T08:57:11;14.77;;;10.77;;
19038;SDS011;9652;49.014;12.052;2022-10-13T08:59:39;17.67;;;12.20;;
19038;SDS011;9652;49.014;12.052;2022-10-13T09:02:08;16.83;;;11.20;;
19038;SDS011;9652;49.014;12.052;2022-10-13T09:04:39;19.20;;;12.57;;
19038;SDS011;9652;49.014;12.052;2022-10-13T09:07:10;17.10;;;12.67;;
19038;SDS011;9652;49.014;12.052;2022-10-13T09:09:42;19.83;;;12.73;;
19038;SDS011;9652;49.014;12.052;2022-10-13T09:12:10;17.57;;;12.17;;
19038;SDS011;9652;49.014;12.052;2022-10-13T09:14:39;19.10;;;11.17;;
19038;SDS011;9652;49.014;12.052;2022-10-13T09:17:14;16.67;;;10.73;;
19038;SDS011;9652;49.014;12.052;2022-10-13T09:19:44;16.70;;;11.00;;
19038;SDS011;9652;49.014;12.052;2022-10-13T09:22:25;14.73;;;10.87;;
19038;SDS011;9652;49.014;12.052;2022-10-13T09:25:08;18.67;;;11.00;;
19038;SDS011;9652;49.014;12.052;2022-10-13T09:27:46;15.83;;;11.40;;
19038;SDS011;9652;49.014;12.052;2022-10-13T09:30:24;16.00;;;11.40;;
19038;SDS011;9652;49.014;12.052;2022-10-13T09:33:12;17.50;;;11.03;;
19038;SDS011;9652;49.014;12.052;2022-10-13T09:36:03;12.73;;;9.50;;
19038;SDS011;9652;49.014;12.052;2022-10-13T09:38:36;15.33;;;10.50;;
19038;SDS011;9652;49.014;12.052;2022-10-13T09:41:05;18.17;;;11.53;;
19038;SDS011;9652;49.014;12.052;2022-10-13T09:43:59;16.43;;;11.33;;
19038;SDS011;9652;49.014;12.052;2022-10-13T09:46:35;14.70;;;10.47;;
19038;SDS011;9652;49.014;12.052;2022-10-13T09:49:20;15.83;;;11.47;;
19038;SDS011;9652;49.014;12.052;2022-10-13T09:51:59;17.77;;;11.17;;
19038;SDS011;9652;49.014;12.052;2022-10-13T09:54:37;16.23;;;10.77;;
19038;SDS011;9652;49.014;12.052;2022-10-13T09:57:13;18.07;;;11.03;;
19038;SDS011;9652;49.014;12.052;2022-10-13T09:59:52;21.33;;;12.60;;
19038;SDS011;9652;49.014;12.052;2022-10-13T10:02:37;16.07;;;10.57;;
19038;SDS011;9652;49.014;12.052;2022-10-13T10:05:17;17.60;;;10.43;;
19038;SDS011;9652;49.014;12.052;2022-10-13T10:07:55;14.73;;;10.20;;
19038;SDS011;9652;49.014;12.052;2022-10-13T10:10:30;18.60;;;12.03;;
19038;SDS011;9652;49.014;12.052;2022-10-13T10:13:07;16.07;;;9.73;;
19038;SDS011;9652;49.014;12.052;2022-10-13T10:15:42;16.43;;;10.20;;
19038;SDS011;9652;49.014;12.052;2022-10-13T10:18:20;15.50;;;10.50;;
19038;SDS011;9652;49.014;12.052;2022-10-13T10:21:00;17.63;;;12.13;;
19038;SDS011;9652;49.014;12.052;2022-10-13T10:23:41;20.10;;;12.43;;
19038;SDS011;9652;49.014;12.052;2022-10-13T10:26:15;18.53;;;11.23;;
19038;SDS011;9652;49.014;12.052;2022-10-13T10:29:00;15.77;;;11.07;;
19038;SDS011;9652;49.014;12.052;2022-10-13T10:31:54;17.83;;;10.60;;
19038;SDS011;9652;49.014;12.052;2022-10-13T10:34:39;17.17;;;10.27;;
19038;SDS011;9652;49.014;12.052;2022-10-13T10:37:17;17.67;;;10.67;;
19038;SDS011;9652;49.014;12.052;2022-10-13T10:40:02;20.00;;;11.57;;
19038;SDS011;9652;49.014;12.052;2022-10-13T10:42:57;16.97;;;11.17;;
19038;SDS011;9652;49.014;12.052;2022-10-13T10:45:58;13.83;;;10.07;;
19038;SDS011;9652;49.014;12.052;2022-10-13T10:48:31;16.73;;;10.27;;
19038;SDS011;9652;49.014;12.052;2022-10-13T10:51:04;15.70;;;10.27;;
19038;SDS011;9652;49.014;12.052;2022-10-13T10:53:36;16.30;;;11.00;;
19038;SDS011;9652;49.014;12.052;2022-10-13T10:56:16;16.80;;;11.03;;
19038;SDS011;9652;49.014;12.052;2022-10-13T10:58:57;15.80;;;10.67;;
19038;SDS011;9652;49.014;12.052;2022-10-13T11:01:43;15.90;;;10.23;;
19038;SDS011;9652;49.014;12.052;2022-10-13T11:04:30;14.93;;;9.80;;
19038;SDS011;9652;49.014;12.052;2022-10-13T11:07:09;14.73;;;9.77;;
19038;SDS011;9652;49.014;12.052;2022-10-13T11:10:01;12.70;;;9.63;;
19038;SDS011;9652;49.014;12.052;2022-10-13T11:15:51;15.73;;;9.77;;
19038;SDS011;9652;49.014;12.052;2022-10-13T11:24:55;12.97;;;9.00;;
19038;SDS011;9652;49.014;12.052;2022-10-13T11:27:39;14.37;;;9.27;;
19038;SDS011;9652;49.014;12.052;2022-10-13T11:36:36;13.40;;;9.47;;
19038;SDS011;9652;49.014;12.052;2022-10-13T11:39:32;15.70;;;9.60;;
19038;SDS011;9652;49.014;12.052;2022-10-13T11:42:30;12.53;;;8.53;;
19038;SDS011;9652;49.014;12.052;2022-10-13T11:45:13;17.03;;;9.90;;
19038;SDS011;9652;49.014;12.052;2022-10-13T11:51:25;15.50;;;9.73;;
19038;SDS011;9652;49.014;12.052;2022-10-13T11:54:10;14.97;;;9.80;;
19038;SDS011;9652;49.014;12.052;2022-10-13T11:56:50;14.60;;;10.50;;
19038;SDS011;9652;49.014;12.052;2022-10-13T11:59:21;14.87;;;10.57;;
19038;SDS011;9652;49.014;12.052;2022-10-13T12:01:53;14.70;;;10.37;;
19038;SDS011;9652;49.014;12.052;2022-10-13T12:04:23;17.57;;;10.90;;
19038;SDS011;9652;49.014;12.052;2022-10-13T12:06:54;15.47;;;10.20;;
19038;SDS011;9652;49.014;12.052;2022-10-13T12:09:26;14.83;;;9.73;;
19038;SDS011;9652;49.014;12.052;2022-10-13T12:11:59;16.23;;;11.10;;
19038;SDS011;9652;49.014;12.052;2022-10-13T12:14:34;16.40;;;11.03;;
19038;SDS011;9652;49.014;12.052;2022-10-13T12:17:16;15.13;;;9.67;;
19038;SDS011;9652;49.014;12.052;2022-10-13T12:19:48;14.27;;;9.43;;
19038;SDS011;9652;49.014;12.052;2022-10-13T12:22:17;19.73;;;10.13;;
19038;SDS011;9652;49.014;12.052;2022-10-13T12:24:54;11.67;;;8.37;;
19038;SDS011;9652;49.014;12.052;2022-10-13T12:27:26;13.57;;;8.40;;
19038;SDS011;9652;49.014;12.052;2022-10-13T12:29:57;10.70;;;8.37;;
19038;SDS011;9652;49.014;12.052;2022-10-13T12:32:25;15.53;;;7.83;;
19038;SDS011;9652;49.014;12.052;2022-10-13T12:34:56;16.17;;;8.50;;
19038;SDS011;9652;49.014;12.052;2022-10-13T12:37:41;12.07;;;7.80;;
19038;SDS011;9652;49.014;12.052;2022-10-13T12:40:11;12.80;;;7.07;;
19038;SDS011;9652;49.014;12.052;2022-10-13T12:42:43;17.27;;;7.47;;
19038;SDS011;9652;49.014;12.052;2022-10-13T12:45:13;12.90;;;7.47;;
19038;SDS011;9652;49.014;12.052;2022-10-13T12:47:46;10.77;;;7.37;;
19038;SDS011;9652;49.014;12.052;2022-10-13T12:50:20;17.40;;;7.13;;
19038;SDS011;9652;49.014;12.052;2022-10-13T12:53:02;10.93;;;6.63;;
19038;SDS011;9652;49.014;12.052;2022-10-13T12:55:48;11.83;;;7.40;;
19038;SDS011;9652;49.014;12.052;2022-10-13T12:58:25;9.27;;;6.80;;
19038;SDS011;9652;49.014;12.052;2022-10-13T13:01:06;11.30;;;7.40;;
19038;SDS011;9652;49.014;12.052;2022-10-13T13:03:54;12.30;;;6.93;;
19038;SDS011;9652;49.014;12.052;2022-10-13T13:06:30;12.33;;;8.23;;
19038;SDS011;9652;49.014;12.052;2022-10-13T13:12:04;10.33;;;7.50;;
19038;SDS011;9652;49.014;12.052;2022-10-13T13:14:49;9.53;;;6.43;;
19038;SDS011;9652;49.014;12.052;2022-10-13T13:17:29;12.30;;;7.23;;
19038;SDS011;9652;49.014;12.052;2022-10-13T13:19:57;10.23;;;7.07;;
19038;SDS011;9652;49.014;12.052;2022-10-13T13:22:24;10.47;;;7.00;;
19038;SDS011;9652;49.014;12.052;2022-10-13T13:24:52;10.97;;;7.53;;
19038;SDS011;9652;49.014;12.052;2022-10-13T13:27:23;14.57;;;8.03;;
19038;SDS011;9652;49.014;12.052;2022-10-13T13:29:57;10.00;;;7.13;;
19038;SDS011;9652;49.014;12.052;2022-10-13T13:32:25;10.47;;;6.70;;
19038;SDS011;9652;49.014;12.052;2022-10-13T13:34:55;8.40;;;6.90;;
19038;SDS011;9652;49.014;12.052;2022-10-13T13:37:24;10.63;;;6.43;;
19038;SDS011;9652;49.014;12.052;2022-10-13T13:39:55;10.93;;;7.33;;
19038;SDS011;9652;49.014;12.052;2022-10-13T13:42:23;9.93;;;6.87;;
19038;SDS011;9652;49.014;12.052;2022-10-13T13:44:52;9.63;;;5.97;;
19038;SDS011;9652;49.014;12.052;2022-10-13T13:47:21;11.23;;;6.83;;
19038;SDS011;9652;49.014;12.052;2022-10-13T13:49:51;9.47;;;5.97;;
19038;SDS011;9652;49.014;12.052;2022-10-13T13:52:21;10.10;;;6.37;;
19038;SDS011;9652;49.014;12.052;2022-10-13T13:54:49;10.10;;;6.43;;
19038;SDS011;9652;49.014;12.052;2022-10-13T13:57:18;9.70;;;6.10;;
19038;SDS011;9652;49.014;12.052;2022-10-13T13:59:45;13.53;;;5.93;;
19038;SDS011;9652;49.014;12.052;2022-10-13T14:02:13;9.83;;;6.67;;
19038;SDS011;9652;49.014;12.052;2022-10-13T14:04:44;11.53;;;6.03;;
19038;SDS011;9652;49.014;12.052;2022-10-13T14:07:12;11.53;;;6.33;;
19038;SDS011;9652;49.014;12.052;2022-10-13T14:09:40;8.40;;;5.73;;
19038;SDS011;9652;49.014;12.052;2022-10-13T14:12:08;7.13;;;5.83;;
19038;SDS011;9652;49.014;12.052;2022-10-13T14:14:35;9.13;;;5.20;;
19038;SDS011;9652;49.014;12.052;2022-10-13T14:17:03;10.93;;;5.83;;
19038;SDS011;9652;49.014;12.052;2022-10-13T14:19:31;8.17;;;5.57;;
19038;SDS011;9652;49.014;12.052;2022-10-13T14:21:59;8.63;;;6.00;;
19038;SDS011;9652;49.014;12.052;2022-10-13T14:24:26;8.50;;;6.03;;
19038;SDS011;9652;49.014;12.052;2022-10-13T14:26:54;7.87;;;5.67;;
19038;SDS011;9652;49.014;12.052;2022-10-13T14:29:21;11.17;;;6.17;;
19038;SDS011;9652;49.014;12.052;2022-10-13T14:31:50;8.67;;;5.40;;
19038;SDS011;9652;49.014;12.052;2022-10-13T14:34:17;11.40;;;6.57;;
19038;SDS011;9652;49.014;12.052;2022-10-13T14:36:45;6.80;;;4.97;;
19038;SDS011;9652;49.014;12.052;2022-10-13T14:39:15;7.17;;;5.90;;
19038;SDS011;9652;49.014;12.052;2022-10-13T14:41:42;7.53;;;5.33;;
19038;SDS011;9652;49.014;12.052;2022-10-13T14:44:09;6.73;;;4.80;;
19038;SDS011;9652;49.014;12.052;2022-10-13T14:46:42;7.37;;;5.67;;
19038;SDS011;9652;49.014;12.052;2022-10-13T14:49:09;8.93;;;5.63;;
19038;SDS011;9652;49.014;12.052;2022-10-13T14:51:40;8.87;;;4.67;;
19038;SDS011;9652;49.014;12.052;2022-10-13T14:54:08;9.13;;;5.37;;
19038;SDS011;9652;49.014;12.052;2022-10-13T14:56:36;8.17;;;4.97;;
19038;SDS011;9652;49.014;12.052;2022-10-13T14:59:04;9.27;;;5.33;;
19038;SDS011;9652;49.014;12.052;2022-10-13T15:01:35;6.83;;;5.40;;
19038;SDS011;9652;49.014;12.052;2022-10-13T15:04:03;6.73;;;4.97;;
19038;SDS011;9652;49.014;12.052;2022-10-13T15:06:30;8.83;;;6.03;;
19038;SDS011;9652;49.014;12.052;2022-10-13T15:08:58;8.47;;;5.33;;
19038;SDS011;9652;49.014;12.052;2022-10-13T15:11:25;7.43;;;5.10;;
19038;SDS011;9652;49.014;12.052;2022-10-13T15:13:54;12.10;;;5.67;;
19038;SDS011;9652;49.014;12.052;2022-10-13T15:16:21;9.27;;;5.07;;
19038;SDS011;9652;49.014;12.052;2022-10-13T15:18:52;6.03;;;4.77;;
19038;SDS011;9652;49.014;12.052;2022-10-13T15:21:19;7.40;;;5.23;;
19038;SDS011;9652;49.014;12.052;2022-10-13T15:23:48;7.47;;;5.30;;